createdAt,value
2019-01-08T00:07:01.413Z,6.9
2019-01-08T00:17:01.390Z,6.8
2019-01-08T00:32:01.389Z,6.8
2019-01-08T00:37:01.252Z,6.7
2019-01-08T00:47:01.314Z,6.6
2019-01-08T00:52:01.304Z,6.5
2019-01-08T01:07:01.434Z,6.5
2019-01-08T01:22:01.367Z,6.4
2019-01-08T01:32:01.471Z,6.3
2019-01-08T01:37:01.346Z,6.2
2019-01-08T01:42:01.353Z,6.1
2019-01-08T01:57:01.392Z,6.1
2019-01-08T02:02:01.261Z,6.2
2019-01-08T02:17:01.273Z,6.3
2019-01-08T02:27:01.320Z,6.2
2019-01-08T02:42:01.413Z,6.1
2019-01-08T02:57:01.314Z,6.1
2019-01-08T03:12:01.379Z,6.1
2019-01-08T03:27:01.341Z,6.1
2019-01-08T03:42:01.327Z,6.0
2019-01-08T03:57:01.369Z,6.0
2019-01-08T04:12:01.378Z,6.0
2019-01-08T04:22:01.381Z,6.1
2019-01-08T04:37:01.323Z,6.1
2019-01-08T04:52:01.313Z,6.1
2019-01-08T05:02:01.417Z,6.2
2019-01-08T05:17:01.380Z,6.3
2019-01-08T05:32:01.405Z,6.3
2019-01-08T05:37:01.278Z,6.4
2019-01-08T05:47:01.315Z,6.5
2019-01-08T06:02:02.385Z,6.5
2019-01-08T06:17:01.333Z,6.5
2019-01-08T06:32:01.383Z,6.5
2019-01-08T06:47:01.108Z,6.5
2019-01-08T07:02:01.253Z,6.5
2019-01-08T07:17:01.257Z,6.5
2019-01-08T07:32:01.286Z,6.5
2019-01-08T07:37:01.281Z,6.6
2019-01-08T07:52:01.218Z,6.6
2019-01-08T08:07:06.289Z,6.5
2019-01-08T08:22:01.086Z,6.5
2019-01-08T08:37:01.245Z,6.5
2019-01-08T08:52:01.254Z,6.5
2019-01-08T09:02:01.250Z,6.4
2019-01-08T09:17:01.300Z,6.4
2019-01-08T09:23:01.239Z,6.3
2019-01-08T09:33:01.439Z,6.2
2019-01-08T09:48:01.350Z,6.1
2019-01-08T09:53:01.221Z,6.0
2019-01-08T10:08:01.091Z,6.1
2019-01-08T10:18:01.111Z,6.2
2019-01-08T10:23:09.844Z,6.3
2019-01-08T10:38:01.382Z,6.4
2019-01-08T10:53:01.152Z,6.4
2019-01-08T11:08:06.127Z,6.3
2019-01-08T11:23:06.118Z,6.3
2019-01-08T11:33:01.500Z,6.4
2019-01-08T11:43:01.130Z,6.3
2019-01-08T11:53:01.250Z,6.2
2019-01-08T11:58:01.245Z,6.1
2019-01-08T12:03:01.461Z,5.9
2019-01-08T12:13:01.459Z,5.7
2019-01-08T12:18:01.430Z,5.6
2019-01-08T12:23:01.430Z,5.4
2019-01-08T12:28:01.581Z,5.3
2019-01-08T12:33:01.475Z,5.1
2019-01-08T12:48:01.432Z,5.1
2019-01-08T12:53:01.251Z,5.2
2019-01-08T12:58:01.411Z,5.3
2019-01-08T13:03:01.251Z,5.4
2019-01-08T13:18:01.258Z,5.4
2019-01-08T13:23:01.403Z,5.5
2019-01-08T13:33:01.411Z,5.6
2019-01-08T13:38:01.394Z,5.5
2019-01-08T13:53:01.415Z,5.4
2019-01-08T14:03:01.525Z,5.3
2019-01-08T14:13:01.786Z,5.2
2019-01-08T14:23:01.719Z,5.1
2019-01-08T14:33:01.396Z,5.0
2019-01-08T14:48:01.387Z,4.9
2019-01-08T15:03:01.382Z,4.8
2019-01-08T15:18:01.396Z,4.7
2019-01-08T15:28:01.400Z,4.6
2019-01-08T15:38:01.394Z,4.5
2019-01-08T15:48:01.296Z,4.4
2019-01-08T15:58:01.391Z,4.3
2019-01-08T16:13:01.391Z,4.3
2019-01-08T16:28:01.259Z,4.2
2019-01-08T16:38:01.258Z,4.1
2019-01-08T16:53:02.689Z,4.1
2019-01-08T17:08:01.435Z,4.1
2019-01-08T17:18:01.318Z,4.0
2019-01-08T17:28:01.305Z,3.9
2019-01-08T17:43:01.380Z,3.8
2019-01-08T17:58:01.376Z,3.7
2019-01-08T18:13:01.351Z,3.7
2019-01-08T18:28:01.312Z,3.7
2019-01-08T18:43:01.357Z,3.7
2019-01-08T18:53:01.452Z,3.6
2019-01-08T19:08:01.470Z,3.6
2019-01-08T19:23:01.304Z,3.6
2019-01-08T19:38:01.393Z,3.6
2019-01-08T19:43:01.372Z,3.5
2019-01-08T19:58:01.315Z,3.5
2019-01-08T20:13:01.413Z,3.5
2019-01-08T20:28:01.380Z,3.6
2019-01-08T20:43:01.377Z,3.6
2019-01-08T20:53:01.328Z,3.5
2019-01-08T21:08:01.309Z,3.4
2019-01-08T21:23:01.345Z,3.5
2019-01-08T21:38:01.387Z,3.5
2019-01-08T21:48:01.383Z,3.6
2019-01-08T22:03:01.296Z,3.7
2019-01-08T22:18:01.404Z,3.7
2019-01-08T22:33:01.323Z,3.7
2019-01-08T22:48:01.317Z,3.7
2019-01-08T23:03:01.411Z,3.6
2019-01-08T23:13:01.344Z,3.5
2019-01-08T23:18:01.238Z,3.4
2019-01-08T23:33:01.338Z,3.3
2019-01-08T23:43:01.403Z,3.2
2019-01-08T23:53:01.336Z,3.1
